sensor_id;sensor_type;location;lat;lon;timestamp;temperature;humidity
21895;DHT22;11112;51.270;7.224;2022-09-09T00:00:19;19.90;91.30
21895;DHT22;11112;51.270;7.224;2022-09-09T00:02:56;19.90;91.30
21895;DHT22;11112;51.270;7.224;2022-09-09T00:05:32;19.90;91.20
21895;DHT22;11112;51.270;7.224;2022-09-09T00:08:03;19.90;91.20
21895;DHT22;11112;51.270;7.224;2022-09-09T00:10:33;19.90;91.30
21895;DHT22;11112;51.270;7.224;2022-09-09T00:13:13;19.80;91.10
21895;DHT22;11112;51.270;7.224;2022-09-09T00:15:51;19.90;91.10
21895;DHT22;11112;51.270;7.224;2022-09-09T00:18:27;19.90;91.10
21895;DHT22;11112;51.270;7.224;2022-09-09T00:21:04;19.90;91.20
21895;DHT22;11112;51.270;7.224;2022-09-09T00:23:35;19.90;91.00
21895;DHT22;11112;51.270;7.224;2022-09-09T00:26:09;19.90;91.30
21895;DHT22;11112;51.270;7.224;2022-09-09T00:28:47;19.90;91.00
21895;DHT22;11112;51.270;7.224;2022-09-09T00:31:21;19.80;90.90
21895;DHT22;11112;51.270;7.224;2022-09-09T00:33:53;19.90;91.00
21895;DHT22;11112;51.270;7.224;2022-09-09T00:36:24;19.80;90.90
21895;DHT22;11112;51.270;7.224;2022-09-09T00:38:56;19.80;91.40
21895;DHT22;11112;51.270;7.224;2022-09-09T00:41:32;19.80;91.00
21895;DHT22;11112;51.270;7.224;2022-09-09T00:44:16;19.80;91.00
21895;DHT22;11112;51.270;7.224;2022-09-09T00:47:12;19.70;90.90
21895;DHT22;11112;51.270;7.224;2022-09-09T00:49:59;19.70;91.00
21895;DHT22;11112;51.270;7.224;2022-09-09T00:52:36;19.60;91.10
21895;DHT22;11112;51.270;7.224;2022-09-09T00:55:12;19.70;91.10
21895;DHT22;11112;51.270;7.224;2022-09-09T00:57:42;19.70;91.10
21895;DHT22;11112;51.270;7.224;2022-09-09T01:00:21;19.60;91.10
21895;DHT22;11112;51.270;7.224;2022-09-09T01:03:08;19.60;91.10
21895;DHT22;11112;51.270;7.224;2022-09-09T01:06:02;19.60;91.10
21895;DHT22;11112;51.270;7.224;2022-09-09T01:11:49;19.50;91.20
21895;DHT22;11112;51.270;7.224;2022-09-09T01:14:32;19.50;91.30
21895;DHT22;11112;51.270;7.224;2022-09-09T01:17:11;19.50;91.40
21895;DHT22;11112;51.270;7.224;2022-09-09T01:20:03;19.40;91.30
21895;DHT22;11112;51.270;7.224;2022-09-09T01:22:44;19.40;91.40
21895;DHT22;11112;51.270;7.224;2022-09-09T01:25:25;19.30;91.50
21895;DHT22;11112;51.270;7.224;2022-09-09T01:27:58;19.40;91.50
21895;DHT22;11112;51.270;7.224;2022-09-09T01:30:28;19.40;91.50
21895;DHT22;11112;51.270;7.224;2022-09-09T01:32:57;19.40;91.50
21895;DHT22;11112;51.270;7.224;2022-09-09T01:35:42;19.40;91.50
21895;DHT22;11112;51.270;7.224;2022-09-09T01:38:13;19.40;91.50
21895;DHT22;11112;51.270;7.224;2022-09-09T01:40:41;19.40;91.40
21895;DHT22;11112;51.270;7.224;2022-09-09T01:43:09;19.40;91.40
21895;DHT22;11112;51.270;7.224;2022-09-09T01:45:37;19.40;91.40
21895;DHT22;11112;51.270;7.224;2022-09-09T01:48:06;19.50;91.40
21895;DHT22;11112;51.270;7.224;2022-09-09T01:50:33;19.50;91.50
21895;DHT22;11112;51.270;7.224;2022-09-09T01:53:01;19.50;91.40
21895;DHT22;11112;51.270;7.224;2022-09-09T01:55:30;19.50;91.30
21895;DHT22;11112;51.270;7.224;2022-09-09T01:58:19;19.50;91.40
21895;DHT22;11112;51.270;7.224;2022-09-09T02:00:56;19.50;91.30
21895;DHT22;11112;51.270;7.224;2022-09-09T02:03:29;19.50;91.20
21895;DHT22;11112;51.270;7.224;2022-09-09T02:06:07;19.50;91.20
21895;DHT22;11112;51.270;7.224;2022-09-09T02:08:42;19.50;91.10
21895;DHT22;11112;51.270;7.224;2022-09-09T02:11:14;19.50;91.00
21895;DHT22;11112;51.270;7.224;2022-09-09T02:13:45;19.40;91.00
21895;DHT22;11112;51.270;7.224;2022-09-09T02:16:18;19.50;90.90
21895;DHT22;11112;51.270;7.224;2022-09-09T02:18:53;19.40;90.80
21895;DHT22;11112;51.270;7.224;2022-09-09T02:21:23;19.40;90.80
21895;DHT22;11112;51.270;7.224;2022-09-09T02:23:53;19.40;90.80
21895;DHT22;11112;51.270;7.224;2022-09-09T02:26:22;19.40;90.80
21895;DHT22;11112;51.270;7.224;2022-09-09T02:28:54;19.40;90.90
21895;DHT22;11112;51.270;7.224;2022-09-09T02:31:23;19.40;90.90
21895;DHT22;11112;51.270;7.224;2022-09-09T02:33:53;19.30;90.90
21895;DHT22;11112;51.270;7.224;2022-09-09T02:36:25;19.30;90.90
21895;DHT22;11112;51.270;7.224;2022-09-09T02:38:54;19.30;90.90
21895;DHT22;11112;51.270;7.224;2022-09-09T02:41:28;19.30;90.90
21895;DHT22;11112;51.270;7.224;2022-09-09T02:43:59;19.30;90.90
21895;DHT22;11112;51.270;7.224;2022-09-09T02:46:36;19.30;91.00
21895;DHT22;11112;51.270;7.224;2022-09-09T02:49:11;19.30;91.00
21895;DHT22;11112;51.270;7.224;2022-09-09T02:51:44;19.30;91.00
21895;DHT22;11112;51.270;7.224;2022-09-09T02:54:22;19.30;91.00
21895;DHT22;11112;51.270;7.224;2022-09-09T02:57:01;19.30;90.90
21895;DHT22;11112;51.270;7.224;2022-09-09T02:59:30;19.30;90.90
21895;DHT22;11112;51.270;7.224;2022-09-09T03:01:58;19.30;90.90
21895;DHT22;11112;51.270;7.224;2022-09-09T03:04:25;19.30;90.90
21895;DHT22;11112;51.270;7.224;2022-09-09T03:06:52;19.30;90.80
21895;DHT22;11112;51.270;7.224;2022-09-09T03:09:19;19.30;90.80
21895;DHT22;11112;51.270;7.224;2022-09-09T03:11:46;19.30;90.80
21895;DHT22;11112;51.270;7.224;2022-09-09T03:14:14;19.30;90.80
21895;DHT22;11112;51.270;7.224;2022-09-09T03:16:42;19.20;90.80
21895;DHT22;11112;51.270;7.224;2022-09-09T03:19:09;19.20;90.90
21895;DHT22;11112;51.270;7.224;2022-09-09T03:21:36;19.10;90.90
21895;DHT22;11112;51.270;7.224;2022-09-09T03:24:04;19.20;90.90
21895;DHT22;11112;51.270;7.224;2022-09-09T03:26:32;19.20;90.90
21895;DHT22;11112;51.270;7.224;2022-09-09T03:28:59;19.20;91.00
21895;DHT22;11112;51.270;7.224;2022-09-09T03:31:27;19.20;91.00
21895;DHT22;11112;51.270;7.224;2022-09-09T03:33:57;19.20;91.00
21895;DHT22;11112;51.270;7.224;2022-09-09T03:36:24;19.20;91.00
21895;DHT22;11112;51.270;7.224;2022-09-09T03:38:53;19.10;91.10
21895;DHT22;11112;51.270;7.224;2022-09-09T03:41:21;19.10;91.10
21895;DHT22;11112;51.270;7.224;2022-09-09T03:43:49;19.10;91.20
21895;DHT22;11112;51.270;7.224;2022-09-09T03:46:17;19.10;91.20
21895;DHT22;11112;51.270;7.224;2022-09-09T03:48:44;19.10;91.20
21895;DHT22;11112;51.270;7.224;2022-09-09T03:51:13;19.10;91.20
21895;DHT22;11112;51.270;7.224;2022-09-09T03:53:41;19.10;91.20
21895;DHT22;11112;51.270;7.224;2022-09-09T03:56:09;19.10;91.20
21895;DHT22;11112;51.270;7.224;2022-09-09T03:58:37;19.10;91.30
21895;DHT22;11112;51.270;7.224;2022-09-09T04:01:06;19.10;91.30
21895;DHT22;11112;51.270;7.224;2022-09-09T04:03:35;19.10;91.30
21895;DHT22;11112;51.270;7.224;2022-09-09T04:06:04;19.10;91.30
21895;DHT22;11112;51.270;7.224;2022-09-09T04:08:34;19.00;91.30
21895;DHT22;11112;51.270;7.224;2022-09-09T04:11:03;19.00;91.40
21895;DHT22;11112;51.270;7.224;2022-09-09T04:13:32;19.10;91.40
21895;DHT22;11112;51.270;7.224;2022-09-09T04:16:00;19.00;91.40
21895;DHT22;11112;51.270;7.224;2022-09-09T04:18:29;19.00;91.40
21895;DHT22;11112;51.270;7.224;2022-09-09T04:20:57;19.00;91.40
21895;DHT22;11112;51.270;7.224;2022-09-09T04:23:25;19.00;91.40
21895;DHT22;11112;51.270;7.224;2022-09-09T04:25:57;19.00;91.80
21895;DHT22;11112;51.270;7.224;2022-09-09T04:28:27;19.10;91.40
21895;DHT22;11112;51.270;7.224;2022-09-09T04:30:55;19.10;91.40
21895;DHT22;11112;51.270;7.224;2022-09-09T04:33:24;19.00;91.40
21895;DHT22;11112;51.270;7.224;2022-09-09T04:35:52;19.00;91.40
21895;DHT22;11112;51.270;7.224;2022-09-09T04:38:20;19.00;91.40
21895;DHT22;11112;51.270;7.224;2022-09-09T04:40:49;19.00;91.50
21895;DHT22;11112;51.270;7.224;2022-09-09T04:43:21;19.10;91.50
21895;DHT22;11112;51.270;7.224;2022-09-09T04:45:52;19.10;91.40
21895;DHT22;11112;51.270;7.224;2022-09-09T04:48:20;19.00;91.40
21895;DHT22;11112;51.270;7.224;2022-09-09T04:50:54;19.00;91.50
21895;DHT22;11112;51.270;7.224;2022-09-09T04:53:22;19.00;91.50
21895;DHT22;11112;51.270;7.224;2022-09-09T04:55:51;19.00;91.50
21895;DHT22;11112;51.270;7.224;2022-09-09T04:58:19;19.00;91.50
21895;DHT22;11112;51.270;7.224;2022-09-09T05:00:48;19.10;91.50
21895;DHT22;11112;51.270;7.224;2022-09-09T05:03:17;19.10;91.50
21895;DHT22;11112;51.270;7.224;2022-09-09T05:05:44;19.10;91.50
21895;DHT22;11112;51.270;7.224;2022-09-09T05:08:11;19.10;91.40
21895;DHT22;11112;51.270;7.224;2022-09-09T05:10:39;19.10;91.40
21895;DHT22;11112;51.270;7.224;2022-09-09T05:13:07;19.10;91.50
21895;DHT22;11112;51.270;7.224;2022-09-09T05:15:36;19.10;91.50
21895;DHT22;11112;51.270;7.224;2022-09-09T05:18:04;19.10;91.50
21895;DHT22;11112;51.270;7.224;2022-09-09T05:20:31;19.00;91.40
21895;DHT22;11112;51.270;7.224;2022-09-09T05:22:58;19.10;91.50
21895;DHT22;11112;51.270;7.224;2022-09-09T05:25:25;19.10;91.50
21895;DHT22;11112;51.270;7.224;2022-09-09T05:27:52;19.00;91.50
21895;DHT22;11112;51.270;7.224;2022-09-09T05:30:20;19.00;91.50
21895;DHT22;11112;51.270;7.224;2022-09-09T05:32:50;19.00;91.50
21895;DHT22;11112;51.270;7.224;2022-09-09T05:35:17;19.00;91.50
21895;DHT22;11112;51.270;7.224;2022-09-09T05:37:44;19.00;91.90
21895;DHT22;11112;51.270;7.224;2022-09-09T05:40:12;19.00;91.40
21895;DHT22;11112;51.270;7.224;2022-09-09T05:42:40;19.10;91.50
21895;DHT22;11112;51.270;7.224;2022-09-09T05:45:08;19.10;91.50
21895;DHT22;11112;51.270;7.224;2022-09-09T05:47:35;19.10;91.50
21895;DHT22;11112;51.270;7.224;2022-09-09T05:50:05;19.10;91.50
21895;DHT22;11112;51.270;7.224;2022-09-09T05:52:33;19.10;91.50
21895;DHT22;11112;51.270;7.224;2022-09-09T05:55:00;19.10;91.50
21895;DHT22;11112;51.270;7.224;2022-09-09T05:57:29;19.10;91.60
21895;DHT22;11112;51.270;7.224;2022-09-09T05:59:56;19.10;91.50
21895;DHT22;11112;51.270;7.224;2022-09-09T06:02:23;19.10;91.60
21895;DHT22;11112;51.270;7.224;2022-09-09T06:04:50;19.10;91.60
21895;DHT22;11112;51.270;7.224;2022-09-09T06:07:19;19.10;91.70
21895;DHT22;11112;51.270;7.224;2022-09-09T06:09:46;19.10;91.70
21895;DHT22;11112;51.270;7.224;2022-09-09T06:12:13;19.10;92.20
21895;DHT22;11112;51.270;7.224;2022-09-09T06:14:40;19.10;91.80
21895;DHT22;11112;51.270;7.224;2022-09-09T06:17:07;19.10;91.90
21895;DHT22;11112;51.270;7.224;2022-09-09T06:19:34;19.10;91.90
21895;DHT22;11112;51.270;7.224;2022-09-09T06:22:01;19.10;91.90
21895;DHT22;11112;51.270;7.224;2022-09-09T06:24:29;19.10;92.00
21895;DHT22;11112;51.270;7.224;2022-09-09T06:26:57;19.10;92.00
21895;DHT22;11112;51.270;7.224;2022-09-09T06:29:24;19.00;92.20
21895;DHT22;11112;51.270;7.224;2022-09-09T06:31:51;19.00;92.20
21895;DHT22;11112;51.270;7.224;2022-09-09T06:34:18;19.00;92.20
21895;DHT22;11112;51.270;7.224;2022-09-09T06:36:45;19.00;92.30
21895;DHT22;11112;51.270;7.224;2022-09-09T06:39:12;19.00;92.10
21895;DHT22;11112;51.270;7.224;2022-09-09T06:41:42;19.00;92.00
21895;DHT22;11112;51.270;7.224;2022-09-09T06:44:09;19.00;92.00
21895;DHT22;11112;51.270;7.224;2022-09-09T06:46:37;19.00;92.00
21895;DHT22;11112;51.270;7.224;2022-09-09T06:49:05;19.00;92.10
21895;DHT22;11112;51.270;7.224;2022-09-09T06:51:34;19.00;92.10
21895;DHT22;11112;51.270;7.224;2022-09-09T06:54:03;19.00;91.90
21895;DHT22;11112;51.270;7.224;2022-09-09T06:56:33;19.00;92.00
21895;DHT22;11112;51.270;7.224;2022-09-09T06:59:04;19.00;91.90
21895;DHT22;11112;51.270;7.224;2022-09-09T07:01:35;19.00;91.80
21895;DHT22;11112;51.270;7.224;2022-09-09T07:04:04;19.00;91.70
21895;DHT22;11112;51.270;7.224;2022-09-09T07:06:35;19.10;91.80
21895;DHT22;11112;51.270;7.224;2022-09-09T07:09:04;19.10;91.80
21895;DHT22;11112;51.270;7.224;2022-09-09T07:11:37;19.10;91.80
21895;DHT22;11112;51.270;7.224;2022-09-09T07:14:08;19.10;91.80
21895;DHT22;11112;51.270;7.224;2022-09-09T07:16:38;19.10;91.70
21895;DHT22;11112;51.270;7.224;2022-09-09T07:19:05;19.10;91.80
21895;DHT22;11112;51.270;7.224;2022-09-09T07:21:33;19.00;91.80
21895;DHT22;11112;51.270;7.224;2022-09-09T07:24:01;19.10;91.80
21895;DHT22;11112;51.270;7.224;2022-09-09T07:26:30;19.10;91.80
21895;DHT22;11112;51.270;7.224;2022-09-09T07:28:57;19.20;91.80
21895;DHT22;11112;51.270;7.224;2022-09-09T07:31:28;19.20;91.90
21895;DHT22;11112;51.270;7.224;2022-09-09T07:33:57;19.20;91.70
21895;DHT22;11112;51.270;7.224;2022-09-09T07:36:27;19.20;91.60
21895;DHT22;11112;51.270;7.224;2022-09-09T07:38:57;19.30;91.70
21895;DHT22;11112;51.270;7.224;2022-09-09T07:41:27;19.30;91.60
21895;DHT22;11112;51.270;7.224;2022-09-09T07:43:56;19.40;91.50
21895;DHT22;11112;51.270;7.224;2022-09-09T07:46:26;19.40;91.50
21895;DHT22;11112;51.270;7.224;2022-09-09T07:48:55;19.50;91.40
21895;DHT22;11112;51.270;7.224;2022-09-09T07:51:25;19.50;91.00
21895;DHT22;11112;51.270;7.224;2022-09-09T07:53:55;19.50;90.90
21895;DHT22;11112;51.270;7.224;2022-09-09T07:56:25;19.40;90.90
21895;DHT22;11112;51.270;7.224;2022-09-09T07:58:54;19.40;90.90
21895;DHT22;11112;51.270;7.224;2022-09-09T08:01:23;19.40;90.70
21895;DHT22;11112;51.270;7.224;2022-09-09T08:03:57;19.40;90.60
21895;DHT22;11112;51.270;7.224;2022-09-09T08:06:27;19.40;90.50
21895;DHT22;11112;51.270;7.224;2022-09-09T08:08:55;19.50;90.50
21895;DHT22;11112;51.270;7.224;2022-09-09T08:11:24;19.50;90.50
21895;DHT22;11112;51.270;7.224;2022-09-09T08:13:52;19.50;90.40
21895;DHT22;11112;51.270;7.224;2022-09-09T08:16:22;19.50;90.30
21895;DHT22;11112;51.270;7.224;2022-09-09T08:18:51;19.50;90.20
21895;DHT22;11112;51.270;7.224;2022-09-09T08:21:22;19.50;90.00
21895;DHT22;11112;51.270;7.224;2022-09-09T08:23:51;19.60;90.10
21895;DHT22;11112;51.270;7.224;2022-09-09T08:26:20;19.60;90.10
21895;DHT22;11112;51.270;7.224;2022-09-09T08:28:49;19.70;89.50
21895;DHT22;11112;51.270;7.224;2022-09-09T08:31:19;19.80;89.60
21895;DHT22;11112;51.270;7.224;2022-09-09T08:33:47;19.90;88.90
21895;DHT22;11112;51.270;7.224;2022-09-09T08:36:16;19.90;88.10
21895;DHT22;11112;51.270;7.224;2022-09-09T08:38:47;19.90;87.80
21895;DHT22;11112;51.270;7.224;2022-09-09T08:44:26;20.00;87.50
21895;DHT22;11112;51.270;7.224;2022-09-09T08:47:06;20.00;86.90
21895;DHT22;11112;51.270;7.224;2022-09-09T08:49:58;20.00;86.70
21895;DHT22;11112;51.270;7.224;2022-09-09T08:52:37;20.10;86.20
21895;DHT22;11112;51.270;7.224;2022-09-09T08:55:19;20.10;86.40
21895;DHT22;11112;51.270;7.224;2022-09-09T08:57:51;20.10;85.70
21895;DHT22;11112;51.270;7.224;2022-09-09T09:00:20;20.20;86.10
21895;DHT22;11112;51.270;7.224;2022-09-09T09:02:54;20.20;85.10
21895;DHT22;11112;51.270;7.224;2022-09-09T09:05:35;20.20;84.70
21895;DHT22;11112;51.270;7.224;2022-09-09T09:08:11;20.20;84.50
21895;DHT22;11112;51.270;7.224;2022-09-09T09:10:48;20.20;85.10
21895;DHT22;11112;51.270;7.224;2022-09-09T09:13:19;20.20;85.00
21895;DHT22;11112;51.270;7.224;2022-09-09T09:15:52;20.20;84.80
21895;DHT22;11112;51.270;7.224;2022-09-09T09:18:22;20.20;84.40
21895;DHT22;11112;51.270;7.224;2022-09-09T09:20:56;20.10;83.90
21895;DHT22;11112;51.270;7.224;2022-09-09T09:23:31;20.10;84.30
21895;DHT22;11112;51.270;7.224;2022-09-09T09:26:07;20.10;84.60
21895;DHT22;11112;51.270;7.224;2022-09-09T09:28:36;20.10;86.20
21895;DHT22;11112;51.270;7.224;2022-09-09T09:31:06;20.10;86.80
21895;DHT22;11112;51.270;7.224;2022-09-09T09:33:38;20.10;87.00
21895;DHT22;11112;51.270;7.224;2022-09-09T09:36:13;20.10;87.20
21895;DHT22;11112;51.270;7.224;2022-09-09T09:38:52;20.10;88.50
21895;DHT22;11112;51.270;7.224;2022-09-09T09:41:34;20.10;87.00
21895;DHT22;11112;51.270;7.224;2022-09-09T09:44:03;20.20;87.80
21895;DHT22;11112;51.270;7.224;2022-09-09T09:46:30;20.20;86.60
21895;DHT22;11112;51.270;7.224;2022-09-09T09:48:59;20.20;85.70
21895;DHT22;11112;51.270;7.224;2022-09-09T09:51:27;20.20;84.60
21895;DHT22;11112;51.270;7.224;2022-09-09T09:54:14;20.20;82.90
21895;DHT22;11112;51.270;7.224;2022-09-09T09:56:46;20.20;82.00
21895;DHT22;11112;51.270;7.224;2022-09-09T09:59:22;20.20;81.70
21895;DHT22;11112;51.270;7.224;2022-09-09T10:01:50;20.20;81.20
21895;DHT22;11112;51.270;7.224;2022-09-09T10:04:20;20.20;80.90
21895;DHT22;11112;51.270;7.224;2022-09-09T10:06:49;20.20;80.90
21895;DHT22;11112;51.270;7.224;2022-09-09T10:09:24;20.30;80.50
21895;DHT22;11112;51.270;7.224;2022-09-09T10:11:59;20.20;79.90
21895;DHT22;11112;51.270;7.224;2022-09-09T10:14:33;20.20;79.40
21895;DHT22;11112;51.270;7.224;2022-09-09T10:17:17;20.20;79.70
21895;DHT22;11112;51.270;7.224;2022-09-09T10:20:00;20.20;80.40
21895;DHT22;11112;51.270;7.224;2022-09-09T10:22:33;20.30;80.70
21895;DHT22;11112;51.270;7.224;2022-09-09T10:25:19;20.30;79.90
21895;DHT22;11112;51.270;7.224;2022-09-09T10:31:42;20.30;79.30
21895;DHT22;11112;51.270;7.224;2022-09-09T10:34:23;20.30;78.80
21895;DHT22;11112;51.270;7.224;2022-09-09T10:37:11;20.30;78.90
21895;DHT22;11112;51.270;7.224;2022-09-09T10:39:48;20.30;78.80
21895;DHT22;11112;51.270;7.224;2022-09-09T10:42:18;20.40;78.80
21895;DHT22;11112;51.270;7.224;2022-09-09T10:45:00;20.40;78.40
21895;DHT22;11112;51.270;7.224;2022-09-09T10:47:54;20.40;78.90
21895;DHT22;11112;51.270;7.224;2022-09-09T10:50:50;20.50;79.10
21895;DHT22;11112;51.270;7.224;2022-09-09T10:53:28;20.50;78.40
21895;DHT22;11112;51.270;7.224;2022-09-09T10:56:06;20.60;78.10
21895;DHT22;11112;51.270;7.224;2022-09-09T10:58:40;20.60;77.90
21895;DHT22;11112;51.270;7.224;2022-09-09T11:01:17;20.60;77.90
21895;DHT22;11112;51.270;7.224;2022-09-09T11:03:50;20.60;77.70
21895;DHT22;11112;51.270;7.224;2022-09-09T11:06:25;20.70;78.40
21895;DHT22;11112;51.270;7.224;2022-09-09T11:08:58;20.70;78.00
21895;DHT22;11112;51.270;7.224;2022-09-09T11:11:29;20.70;77.80
21895;DHT22;11112;51.270;7.224;2022-09-09T11:14:04;20.70;78.30
21895;DHT22;11112;51.270;7.224;2022-09-09T11:16:41;20.70;78.30
21895;DHT22;11112;51.270;7.224;2022-09-09T11:19:16;20.70;76.70
21895;DHT22;11112;51.270;7.224;2022-09-09T11:21:48;20.70;77.50
21895;DHT22;11112;51.270;7.224;2022-09-09T11:24:21;20.80;77.20
21895;DHT22;11112;51.270;7.224;2022-09-09T11:26:53;20.80;77.20
21895;DHT22;11112;51.270;7.224;2022-09-09T11:29:58;20.80;76.70
21895;DHT22;11112;51.270;7.224;2022-09-09T11:32:57;20.70;76.50
21895;DHT22;11112;51.270;7.224;2022-09-09T11:36:02;20.80;77.00
21895;DHT22;11112;51.270;7.224;2022-09-09T11:38:47;20.80;77.40
21895;DHT22;11112;51.270;7.224;2022-09-09T11:41:16;20.80;76.30
21895;DHT22;11112;51.270;7.224;2022-09-09T11:43:46;20.80;76.20
21895;DHT22;11112;51.270;7.224;2022-09-09T11:46:16;20.80;76.50
21895;DHT22;11112;51.270;7.224;2022-09-09T11:48:57;20.80;76.20
21895;DHT22;11112;51.270;7.224;2022-09-09T11:51:27;20.80;75.70
21895;DHT22;11112;51.270;7.224;2022-09-09T11:53:57;20.80;76.10
21895;DHT22;11112;51.270;7.224;2022-09-09T11:56:29;20.80;76.50
21895;DHT22;11112;51.270;7.224;2022-09-09T11:59:00;20.80;76.80
21895;DHT22;11112;51.270;7.224;2022-09-09T12:01:35;20.80;77.60
21895;DHT22;11112;51.270;7.224;2022-09-09T12:04:30;20.80;77.40
21895;DHT22;11112;51.270;7.224;2022-09-09T12:07:02;20.70;77.40
21895;DHT22;11112;51.270;7.224;2022-09-09T12:09:45;20.70;79.40
21895;DHT22;11112;51.270;7.224;2022-09-09T12:12:29;20.70;81.20
21895;DHT22;11112;51.270;7.224;2022-09-09T12:15:01;20.60;82.80
21895;DHT22;11112;51.270;7.224;2022-09-09T12:17:48;20.60;83.10
21895;DHT22;11112;51.270;7.224;2022-09-09T12:20:20;20.60;84.40
21895;DHT22;11112;51.270;7.224;2022-09-09T12:23:04;20.60;85.20
21895;DHT22;11112;51.270;7.224;2022-09-09T12:25:57;20.60;86.40
21895;DHT22;11112;51.270;7.224;2022-09-09T12:28:36;20.60;83.20
21895;DHT22;11112;51.270;7.224;2022-09-09T12:31:12;20.60;84.40
21895;DHT22;11112;51.270;7.224;2022-09-09T12:33:44;20.70;82.50
21895;DHT22;11112;51.270;7.224;2022-09-09T12:36:16;20.70;83.00
21895;DHT22;11112;51.270;7.224;2022-09-09T12:38:45;20.70;80.30
21895;DHT22;11112;51.270;7.224;2022-09-09T12:41:21;20.70;80.40
21895;DHT22;11112;51.270;7.224;2022-09-09T12:43:49;20.80;81.40
21895;DHT22;11112;51.270;7.224;2022-09-09T12:46:28;20.70;78.00
21895;DHT22;11112;51.270;7.224;2022-09-09T12:48:59;20.70;77.00
21895;DHT22;11112;51.270;7.224;2022-09-09T12:51:30;20.70;77.10
21895;DHT22;11112;51.270;7.224;2022-09-09T12:53:58;20.70;77.10
21895;DHT22;11112;51.270;7.224;2022-09-09T12:56:28;20.70;77.40
21895;DHT22;11112;51.270;7.224;2022-09-09T12:58:58;20.70;78.20
21895;DHT22;11112;51.270;7.224;2022-09-09T13:01:28;20.70;79.00
21895;DHT22;11112;51.270;7.224;2022-09-09T13:03:56;20.70;79.30
21895;DHT22;11112;51.270;7.224;2022-09-09T13:06:25;20.60;79.70
21895;DHT22;11112;51.270;7.224;2022-09-09T13:08:56;20.60;79.30
21895;DHT22;11112;51.270;7.224;2022-09-09T13:11:26;20.60;80.20
21895;DHT22;11112;51.270;7.224;2022-09-09T13:13:56;20.60;81.90
21895;DHT22;11112;51.270;7.224;2022-09-09T13:16:26;20.60;82.80
21895;DHT22;11112;51.270;7.224;2022-09-09T13:18:57;20.60;82.70
21895;DHT22;11112;51.270;7.224;2022-09-09T13:21:35;20.60;83.00
21895;DHT22;11112;51.270;7.224;2022-09-09T13:24:05;20.60;83.10
21895;DHT22;11112;51.270;7.224;2022-09-09T13:26:35;20.60;82.50
21895;DHT22;11112;51.270;7.224;2022-09-09T13:29:25;20.60;82.80
21895;DHT22;11112;51.270;7.224;2022-09-09T13:31:53;20.50;83.40
21895;DHT22;11112;51.270;7.224;2022-09-09T13:34:28;20.50;84.70
21895;DHT22;11112;51.270;7.224;2022-09-09T13:36:59;20.50;87.30
21895;DHT22;11112;51.270;7.224;2022-09-09T13:39:30;20.40;89.40
21895;DHT22;11112;51.270;7.224;2022-09-09T13:41:57;20.40;89.20
21895;DHT22;11112;51.270;7.224;2022-09-09T13:44:27;20.30;89.60
21895;DHT22;11112;51.270;7.224;2022-09-09T13:47:01;20.30;90.40
21895;DHT22;11112;51.270;7.224;2022-09-09T13:49:30;20.30;90.50
21895;DHT22;11112;51.270;7.224;2022-09-09T13:52:09;20.30;90.80
21895;DHT22;11112;51.270;7.224;2022-09-09T13:54:39;20.30;90.60
21895;DHT22;11112;51.270;7.224;2022-09-09T13:57:15;20.30;90.70
21895;DHT22;11112;51.270;7.224;2022-09-09T13:59:43;20.30;90.50
21895;DHT22;11112;51.270;7.224;2022-09-09T14:02:11;20.30;90.90
21895;DHT22;11112;51.270;7.224;2022-09-09T14:04:38;20.30;91.30
21895;DHT22;11112;51.270;7.224;2022-09-09T14:07:10;20.30;91.20
21895;DHT22;11112;51.270;7.224;2022-09-09T14:09:40;20.40;91.40
21895;DHT22;11112;51.270;7.224;2022-09-09T14:12:09;20.40;91.40
21895;DHT22;11112;51.270;7.224;2022-09-09T14:14:37;20.40;91.20
21895;DHT22;11112;51.270;7.224;2022-09-09T14:17:04;20.50;91.30
21895;DHT22;11112;51.270;7.224;2022-09-09T14:19:32;20.50;91.20
21895;DHT22;11112;51.270;7.224;2022-09-09T14:21:59;20.50;91.30
21895;DHT22;11112;51.270;7.224;2022-09-09T14:24:26;20.50;91.30
21895;DHT22;11112;51.270;7.224;2022-09-09T14:26:55;20.60;91.00
21895;DHT22;11112;51.270;7.224;2022-09-09T14:29:22;20.50;90.90
21895;DHT22;11112;51.270;7.224;2022-09-09T14:31:50;20.50;90.70
21895;DHT22;11112;51.270;7.224;2022-09-09T14:34:17;20.50;90.70
21895;DHT22;11112;51.270;7.224;2022-09-09T14:36:45;20.50;90.80
21895;DHT22;11112;51.270;7.224;2022-09-09T14:39:12;20.50;90.80
21895;DHT22;11112;51.270;7.224;2022-09-09T14:41:39;20.50;90.90
21895;DHT22;11112;51.270;7.224;2022-09-09T14:44:07;20.40;90.80
21895;DHT22;11112;51.270;7.224;2022-09-09T14:46:35;20.40;90.50
21895;DHT22;11112;51.270;7.224;2022-09-09T14:49:02;20.50;90.60
21895;DHT22;11112;51.270;7.224;2022-09-09T14:51:30;20.50;90.60
21895;DHT22;11112;51.270;7.224;2022-09-09T14:53:58;20.50;90.70
21895;DHT22;11112;51.270;7.224;2022-09-09T14:56:29;20.40;90.60
21895;DHT22;11112;51.270;7.224;2022-09-09T14:58:58;20.40;90.90
21895;DHT22;11112;51.270;7.224;2022-09-09T15:01:28;20.40;91.40
21895;DHT22;11112;51.270;7.224;2022-09-09T15:03:58;20.30;91.20
21895;DHT22;11112;51.270;7.224;2022-09-09T15:06:28;20.30;91.50
21895;DHT22;11112;51.270;7.224;2022-09-09T15:08:57;20.30;92.10
21895;DHT22;11112;51.270;7.224;2022-09-09T15:11:27;20.20;92.10
21895;DHT22;11112;51.270;7.224;2022-09-09T15:13:56;20.20;92.00
21895;DHT22;11112;51.270;7.224;2022-09-09T15:16:25;20.20;92.50
21895;DHT22;11112;51.270;7.224;2022-09-09T15:18:56;20.10;91.90
21895;DHT22;11112;51.270;7.224;2022-09-09T15:21:25;20.10;92.10
21895;DHT22;11112;51.270;7.224;2022-09-09T15:23:55;20.00;92.00
21895;DHT22;11112;51.270;7.224;2022-09-09T15:26:22;20.00;91.80
21895;DHT22;11112;51.270;7.224;2022-09-09T15:28:50;20.00;91.80
21895;DHT22;11112;51.270;7.224;2022-09-09T15:31:19;19.90;91.90
21895;DHT22;11112;51.270;7.224;2022-09-09T15:33:49;19.90;92.00
21895;DHT22;11112;51.270;7.224;2022-09-09T15:36:19;19.90;91.30
21895;DHT22;11112;51.270;7.224;2022-09-09T15:38:48;19.80;90.40
21895;DHT22;11112;51.270;7.224;2022-09-09T15:41:16;19.70;90.20
21895;DHT22;11112;51.270;7.224;2022-09-09T15:43:44;19.70;90.50
21895;DHT22;11112;51.270;7.224;2022-09-09T15:46:29;19.70;90.10
21895;DHT22;11112;51.270;7.224;2022-09-09T15:49:04;19.70;90.40
21895;DHT22;11112;51.270;7.224;2022-09-09T15:51:35;19.70;90.40
21895;DHT22;11112;51.270;7.224;2022-09-09T15:54:03;19.70;90.40
21895;DHT22;11112;51.270;7.224;2022-09-09T15:56:30;19.70;90.50
21895;DHT22;11112;51.270;7.224;2022-09-09T15:58:59;19.70;90.40
21895;DHT22;11112;51.270;7.224;2022-09-09T16:01:27;19.70;90.30
21895;DHT22;11112;51.270;7.224;2022-09-09T16:03:56;19.70;90.50
21895;DHT22;11112;51.270;7.224;2022-09-09T16:06:27;19.70;90.70
21895;DHT22;11112;51.270;7.224;2022-09-09T16:08:56;19.70;90.70